createdAt,value
2023-03-31T00:00:04.273Z,26.62
2023-03-31T00:01:04.296Z,26.69
2023-03-31T00:02:04.272Z,26.65
2023-03-31T00:03:04.409Z,26.58
2023-03-31T00:04:04.544Z,26.65
2023-03-31T00:05:04.329Z,26.62
2023-03-31T00:06:04.629Z,26.69
2023-03-31T00:07:04.286Z,26.63
2023-03-31T00:08:04.270Z,26.63
2023-03-31T00:09:04.285Z,26.62
2023-03-31T00:10:17.264Z,26.60
2023-03-31T00:11:04.290Z,26.67
2023-03-31T00:12:04.275Z,26.63
2023-03-31T00:13:04.290Z,26.67
2023-03-31T00:14:04.270Z,26.66
2023-03-31T00:15:04.274Z,26.69
2023-03-31T00:16:04.507Z,26.69
2023-03-31T00:17:04.373Z,26.67
2023-03-31T00:18:04.324Z,26.73
2023-03-31T00:19:04.274Z,26.62
2023-03-31T00:20:04.266Z,26.70
2023-03-31T00:21:04.285Z,26.63
2023-03-31T00:22:04.290Z,26.72
2023-03-31T00:23:04.272Z,26.63
2023-03-31T00:24:04.279Z,26.60
2023-03-31T00:25:04.273Z,26.65
2023-03-31T00:26:04.498Z,26.69
2023-03-31T00:27:04.284Z,26.62
2023-03-31T00:28:04.270Z,26.63
2023-03-31T00:29:04.282Z,26.63
2023-03-31T00:30:04.268Z,26.65
2023-03-31T00:31:04.373Z,26.63
2023-03-31T00:32:04.286Z,26.67
2023-03-31T00:33:04.343Z,26.66
2023-03-31T00:34:04.263Z,26.69
2023-03-31T00:35:04.266Z,26.66
2023-03-31T00:36:04.722Z,26.63
2023-03-31T00:37:04.267Z,26.65
2023-03-31T00:38:04.307Z,26.76
2023-03-31T00:39:04.272Z,26.70
2023-03-31T00:40:04.263Z,26.66
2023-03-31T00:41:04.266Z,26.63
2023-03-31T00:42:04.256Z,26.69
2023-03-31T00:43:04.264Z,26.65
2023-03-31T00:44:04.265Z,26.69
2023-03-31T00:45:04.278Z,26.60
2023-03-31T00:46:04.603Z,26.66
2023-03-31T00:47:04.281Z,26.65
2023-03-31T00:48:04.340Z,26.66
2023-03-31T00:49:04.280Z,26.65
2023-03-31T00:50:04.255Z,26.66
2023-03-31T00:51:04.262Z,26.66
2023-03-31T00:52:04.252Z,26.72
2023-03-31T00:53:04.261Z,26.73
2023-03-31T00:54:04.390Z,26.67
2023-03-31T00:55:04.295Z,26.62
2023-03-31T00:56:04.585Z,26.62
2023-03-31T00:57:04.323Z,26.63
2023-03-31T00:58:04.263Z,26.63
2023-03-31T00:59:04.360Z,26.65
2023-03-31T01:00:04.356Z,26.58
2023-03-31T01:01:04.360Z,26.63
2023-03-31T01:02:04.321Z,26.62
2023-03-31T01:03:04.355Z,26.62
2023-03-31T01:04:04.398Z,26.65
2023-03-31T01:05:04.262Z,26.63
2023-03-31T01:06:04.529Z,26.65
2023-03-31T01:07:04.258Z,26.65
2023-03-31T01:08:04.250Z,26.60
2023-03-31T01:09:04.258Z,26.67
2023-03-31T01:10:04.409Z,26.63
2023-03-31T01:11:04.256Z,26.67
2023-03-31T01:12:04.251Z,26.65
2023-03-31T01:13:04.261Z,26.63
2023-03-31T01:14:04.266Z,26.65
2023-03-31T01:15:04.261Z,26.72
2023-03-31T01:16:04.696Z,26.62
2023-03-31T01:17:04.359Z,26.66
2023-03-31T01:18:04.303Z,26.67
2023-03-31T01:19:04.259Z,26.63
2023-03-31T01:20:04.249Z,26.66
2023-03-31T01:21:04.265Z,26.63
2023-03-31T01:22:04.249Z,26.62
2023-03-31T01:23:04.254Z,26.66
2023-03-31T01:24:04.252Z,26.62
2023-03-31T01:25:04.262Z,26.58
2023-03-31T01:26:04.542Z,26.69
2023-03-31T01:27:04.258Z,26.62
2023-03-31T01:28:04.255Z,26.67
2023-03-31T01:29:04.287Z,26.65
2023-03-31T01:30:04.258Z,26.63
2023-03-31T01:31:04.275Z,26.57
2023-03-31T01:32:04.246Z,26.66
2023-03-31T01:33:04.292Z,26.63
2023-03-31T01:34:04.265Z,26.65
2023-03-31T01:35:04.252Z,26.65
2023-03-31T01:36:04.436Z,26.65
2023-03-31T01:37:04.259Z,26.65
2023-03-31T01:38:04.246Z,26.65
2023-03-31T01:39:04.250Z,26.65
2023-03-31T01:40:04.244Z,26.63
2023-03-31T01:41:04.254Z,26.63
2023-03-31T01:42:04.271Z,26.65
2023-03-31T01:43:04.253Z,26.70
2023-03-31T01:44:04.247Z,26.62
2023-03-31T01:45:04.252Z,26.62
2023-03-31T01:46:04.406Z,26.66
2023-03-31T01:47:04.255Z,26.63
2023-03-31T01:48:04.275Z,26.63
2023-03-31T01:49:04.257Z,26.67
2023-03-31T01:50:04.242Z,26.67
2023-03-31T01:51:04.247Z,26.69
2023-03-31T01:52:04.352Z,26.60
2023-03-31T01:53:04.268Z,26.65
2023-03-31T01:54:04.248Z,26.62
2023-03-31T01:55:04.249Z,26.66
2023-03-31T01:56:04.582Z,26.63
2023-03-31T01:57:04.282Z,26.62
2023-03-31T01:58:04.271Z,26.62
2023-03-31T01:59:04.244Z,26.67
2023-03-31T02:00:04.252Z,26.66
2023-03-31T02:01:04.252Z,26.66
2023-03-31T02:02:04.251Z,26.63
2023-03-31T02:03:04.404Z,26.63
2023-03-31T02:04:04.313Z,26.66
2023-03-31T02:05:04.245Z,26.65
2023-03-31T02:06:04.586Z,26.65
2023-03-31T02:07:04.252Z,26.62
2023-03-31T02:08:04.241Z,26.63
2023-03-31T02:09:04.245Z,26.63
2023-03-31T02:10:04.290Z,26.62
2023-03-31T02:11:04.244Z,26.72
2023-03-31T02:12:04.252Z,26.62
2023-03-31T02:13:04.248Z,26.67
2023-03-31T02:14:04.267Z,26.63
2023-03-31T02:15:04.244Z,26.63
2023-03-31T02:16:04.481Z,26.63
2023-03-31T02:17:04.241Z,26.65
2023-03-31T02:18:04.273Z,26.62
2023-03-31T02:19:04.241Z,26.66
2023-03-31T02:20:04.237Z,26.69
2023-03-31T02:21:04.245Z,26.63
2023-03-31T02:22:04.239Z,26.65
2023-03-31T02:23:04.238Z,26.65
2023-03-31T02:24:04.238Z,26.62
2023-03-31T02:25:04.238Z,26.63
2023-03-31T02:26:04.409Z,26.63
2023-03-31T02:27:04.237Z,26.63
2023-03-31T02:28:04.231Z,26.63
2023-03-31T02:29:04.247Z,26.63
2023-03-31T02:30:04.260Z,26.62
2023-03-31T02:31:04.239Z,26.63
2023-03-31T02:32:04.265Z,26.57
2023-03-31T02:33:04.379Z,26.62
2023-03-31T02:34:04.228Z,26.62
2023-03-31T02:35:04.238Z,26.66
2023-03-31T02:36:04.724Z,26.62
2023-03-31T02:37:04.251Z,26.63
2023-03-31T02:38:04.229Z,26.63
2023-03-31T02:39:04.250Z,26.62
2023-03-31T02:40:04.226Z,26.63
2023-03-31T02:41:04.240Z,26.60
2023-03-31T02:42:04.230Z,26.58
2023-03-31T02:43:04.232Z,26.60
2023-03-31T02:44:04.241Z,26.62
2023-03-31T02:45:04.268Z,26.63
2023-03-31T02:46:04.475Z,26.63
2023-03-31T02:47:04.242Z,26.69
2023-03-31T02:48:04.248Z,26.58
2023-03-31T02:49:04.247Z,26.63
2023-03-31T02:50:04.233Z,26.57
2023-03-31T02:51:04.248Z,26.65
2023-03-31T02:52:04.224Z,26.63
2023-03-31T02:53:04.232Z,26.60
2023-03-31T02:54:04.225Z,26.62
2023-03-31T02:55:04.232Z,26.63
2023-03-31T02:56:04.527Z,26.65
2023-03-31T02:57:04.260Z,26.58
2023-03-31T02:58:04.226Z,26.55
2023-03-31T02:59:04.231Z,26.69
2023-03-31T03:00:04.224Z,26.58
2023-03-31T03:01:04.239Z,26.57
2023-03-31T03:02:04.266Z,26.65
2023-03-31T03:03:04.315Z,26.63
2023-03-31T03:04:04.238Z,26.65
2023-03-31T03:05:04.231Z,26.63
2023-03-31T03:06:05.392Z,26.72
2023-03-31T03:07:04.228Z,26.62
2023-03-31T03:08:04.230Z,26.65
2023-03-31T03:09:04.229Z,26.58
2023-03-31T03:10:04.386Z,26.63
2023-03-31T03:11:04.236Z,26.65
2023-03-31T03:12:04.226Z,26.67
2023-03-31T03:13:04.233Z,26.62
2023-03-31T03:14:04.220Z,26.60
2023-03-31T03:15:04.227Z,26.60
2023-03-31T03:16:04.445Z,26.66
2023-03-31T03:17:04.226Z,26.63
2023-03-31T03:18:04.281Z,26.63
2023-03-31T03:19:04.226Z,26.65
2023-03-31T03:20:04.217Z,26.63
2023-03-31T03:21:04.228Z,26.60
2023-03-31T03:22:04.224Z,26.58
2023-03-31T03:23:04.239Z,26.60
2023-03-31T03:24:04.226Z,26.63
2023-03-31T03:25:04.233Z,26.63
2023-03-31T03:26:04.363Z,26.63
2023-03-31T03:27:04.230Z,26.60
2023-03-31T03:28:04.216Z,26.63
2023-03-31T03:29:04.228Z,26.62
2023-03-31T03:30:04.220Z,26.65
2023-03-31T03:31:04.273Z,26.63
2023-03-31T03:32:04.215Z,26.62
2023-03-31T03:33:04.239Z,26.67
2023-03-31T03:34:04.249Z,26.60
2023-03-31T03:35:04.216Z,26.62
2023-03-31T03:36:04.524Z,26.62
2023-03-31T03:37:04.213Z,26.66
2023-03-31T03:38:04.224Z,26.63
2023-03-31T03:39:04.214Z,26.58
2023-03-31T03:40:04.378Z,26.62
2023-03-31T03:41:04.218Z,26.57
2023-03-31T03:42:04.221Z,26.65
2023-03-31T03:43:04.222Z,26.66
2023-03-31T03:44:04.222Z,26.60
2023-03-31T03:45:04.215Z,26.62
2023-03-31T03:46:04.465Z,26.60
2023-03-31T03:47:04.211Z,26.60
2023-03-31T03:48:04.260Z,26.62
2023-03-31T03:49:04.223Z,26.70
2023-03-31T03:50:04.261Z,26.65
2023-03-31T03:51:04.216Z,26.62
2023-03-31T03:52:04.223Z,26.63
2023-03-31T03:53:04.212Z,26.57
2023-03-31T03:54:04.217Z,26.66
2023-03-31T03:55:04.217Z,26.62
2023-03-31T03:56:04.497Z,26.69
2023-03-31T03:57:04.250Z,26.62
2023-03-31T03:58:04.221Z,26.58
2023-03-31T03:59:04.205Z,26.58
2023-03-31T04:00:04.219Z,26.62
2023-03-31T04:01:04.203Z,26.58
2023-03-31T04:02:04.280Z,26.58
2023-03-31T04:03:04.254Z,26.62
2023-03-31T04:04:04.215Z,26.58
2023-03-31T04:05:04.282Z,26.58
2023-03-31T04:06:04.612Z,26.57
2023-03-31T04:07:04.208Z,26.63
2023-03-31T04:08:04.206Z,26.60
2023-03-31T04:09:04.205Z,26.62
2023-03-31T04:10:04.256Z,26.63
2023-03-31T04:11:04.197Z,26.62
2023-03-31T04:12:04.205Z,26.66
2023-03-31T04:13:04.199Z,26.63
2023-03-31T04:14:04.213Z,26.62
2023-03-31T04:15:04.197Z,26.62
2023-03-31T04:16:04.567Z,26.65
2023-03-31T04:17:04.200Z,26.63
2023-03-31T04:18:04.236Z,26.63
2023-03-31T04:19:04.197Z,26.62
2023-03-31T04:20:04.208Z,26.65
2023-03-31T04:21:04.297Z,26.62
2023-03-31T04:22:04.230Z,26.66
2023-03-31T04:23:04.195Z,26.67
2023-03-31T04:24:04.209Z,26.62
2023-03-31T04:25:04.194Z,26.60
2023-03-31T04:26:04.470Z,26.55
2023-03-31T04:27:04.191Z,26.57
2023-03-31T04:28:04.198Z,26.54
2023-03-31T04:29:04.194Z,26.52
2023-03-31T04:30:04.215Z,26.55
2023-03-31T04:31:04.189Z,26.57
2023-03-31T04:32:04.267Z,26.60
2023-03-31T04:33:04.389Z,26.57
2023-03-31T04:34:04.196Z,26.50
2023-03-31T04:35:04.191Z,26.50
2023-03-31T04:36:04.689Z,26.48
2023-03-31T04:37:04.195Z,26.54
2023-03-31T04:38:04.217Z,26.52
2023-03-31T04:39:04.186Z,26.48
2023-03-31T04:40:04.196Z,26.52
2023-03-31T04:41:04.186Z,26.45
2023-03-31T04:42:04.193Z,26.51
2023-03-31T04:43:04.189Z,26.48
2023-03-31T04:44:04.190Z,26.50
2023-03-31T04:45:04.202Z,26.45
2023-03-31T04:46:04.403Z,26.48
2023-03-31T04:47:04.186Z,26.50
2023-03-31T04:48:04.259Z,26.40
2023-03-31T04:49:04.192Z,26.37
2023-03-31T04:50:04.196Z,26.51
2023-03-31T04:51:04.186Z,26.50
2023-03-31T04:52:04.186Z,26.51
2023-03-31T04:53:04.196Z,26.50
2023-03-31T04:54:04.220Z,26.39
2023-03-31T04:55:04.195Z,26.39
2023-03-31T04:56:04.540Z,26.45
2023-03-31T04:57:04.212Z,26.47
2023-03-31T04:58:04.184Z,26.44
2023-03-31T04:59:04.179Z,26.45
2023-03-31T05:00:04.186Z,26.45
2023-03-31T05:01:04.198Z,26.43
2023-03-31T05:02:04.332Z,26.48
2023-03-31T05:03:04.299Z,26.39
2023-03-31T05:04:04.186Z,26.44
2023-03-31T05:05:04.179Z,26.43
2023-03-31T05:06:04.600Z,26.47
2023-03-31T05:07:04.179Z,26.44
2023-03-31T05:08:04.196Z,26.39
2023-03-31T05:09:04.190Z,26.40
2023-03-31T05:10:04.212Z,26.45
2023-03-31T05:11:04.180Z,26.44
2023-03-31T05:12:04.186Z,26.45
2023-03-31T05:13:04.176Z,26.44
2023-03-31T05:14:04.185Z,26.45
2023-03-31T05:15:04.178Z,26.47
2023-03-31T05:16:04.786Z,26.48
2023-03-31T05:17:04.197Z,26.45
2023-03-31T05:18:04.217Z,26.50
2023-03-31T05:19:04.175Z,26.47
2023-03-31T05:20:04.182Z,26.47
2023-03-31T05:21:04.176Z,26.51
2023-03-31T05:22:04.182Z,26.47
2023-03-31T05:23:04.173Z,26.47
2023-03-31T05:24:04.182Z,26.51
2023-03-31T05:25:04.176Z,26.57
2023-03-31T05:26:04.518Z,26.52
2023-03-31T05:27:04.173Z,26.58
2023-03-31T05:28:04.190Z,26.48
2023-03-31T05:29:04.179Z,26.57
2023-03-31T05:30:04.483Z,26.57
2023-03-31T05:31:04.176Z,26.58
2023-03-31T05:32:04.318Z,26.66
2023-03-31T05:33:04.234Z,26.73
2023-03-31T05:34:04.184Z,26.70
2023-03-31T05:35:04.171Z,26.69
2023-03-31T05:36:04.669Z,26.82
2023-03-31T05:37:04.170Z,26.73
2023-03-31T05:38:04.177Z,26.72
2023-03-31T05:39:04.168Z,26.69
2023-03-31T05:40:04.182Z,26.70
2023-03-31T05:41:04.171Z,26.75
2023-03-31T05:42:04.209Z,26.75
2023-03-31T05:43:04.167Z,26.73
2023-03-31T05:44:04.176Z,26.80
2023-03-31T05:45:04.166Z,26.88
2023-03-31T05:46:04.578Z,26.81
2023-03-31T05:47:04.167Z,26.84
2023-03-31T05:48:04.226Z,26.82
2023-03-31T05:49:04.167Z,26.92
2023-03-31T05:50:04.173Z,26.95
2023-03-31T05:51:04.167Z,26.92
2023-03-31T05:52:04.173Z,26.89
2023-03-31T05:53:04.178Z,26.97
2023-03-31T05:54:04.174Z,26.92
2023-03-31T05:55:04.186Z,26.97
2023-03-31T05:56:04.358Z,27.03
2023-03-31T05:57:04.275Z,27.02
2023-03-31T05:58:04.199Z,27.06
2023-03-31T05:59:05.246Z,27.00
2023-03-31T06:00:04.170Z,27.10
2023-03-31T06:01:04.297Z,27.00
2023-03-31T06:02:04.195Z,27.09
2023-03-31T06:03:04.237Z,27.02
2023-03-31T06:04:04.229Z,26.97
2023-03-31T06:05:04.165Z,26.99
2023-03-31T06:06:04.169Z,27.07
2023-03-31T06:07:04.166Z,27.06
2023-03-31T06:08:04.171Z,27.10
2023-03-31T06:09:04.164Z,27.04
2023-03-31T06:10:04.190Z,27.06
2023-03-31T06:11:04.475Z,27.10
2023-03-31T06:12:04.170Z,27.06
2023-03-31T06:13:04.411Z,27.12
2023-03-31T06:14:04.200Z,27.14
2023-03-31T06:15:04.164Z,27.14
2023-03-31T06:16:04.193Z,27.12
2023-03-31T06:17:04.162Z,27.22
2023-03-31T06:18:04.213Z,27.18
2023-03-31T06:19:04.163Z,27.25
2023-03-31T06:20:12.912Z,27.22
2023-03-31T06:21:04.465Z,27.24
2023-03-31T06:22:04.188Z,27.25
2023-03-31T06:23:04.161Z,27.27
2023-03-31T06:24:04.177Z,27.24
2023-03-31T06:25:04.162Z,27.32
2023-03-31T06:26:04.169Z,27.29
2023-03-31T06:27:04.189Z,27.34
2023-03-31T06:28:04.169Z,27.32
2023-03-31T06:29:04.341Z,27.39
2023-03-31T06:30:04.192Z,27.32
2023-03-31T06:31:04.289Z,27.32
2023-03-31T06:32:04.234Z,27.36
2023-03-31T06:33:04.214Z,27.41
2023-03-31T06:34:04.182Z,27.46
2023-03-31T06:35:04.177Z,27.36
2023-03-31T06:36:04.371Z,27.36
2023-03-31T06:37:04.161Z,27.41
2023-03-31T06:38:04.179Z,27.40
2023-03-31T06:39:04.162Z,27.43
2023-03-31T06:40:04.189Z,27.46
2023-03-31T06:41:04.458Z,27.44
2023-03-31T06:42:04.186Z,27.41
2023-03-31T06:43:04.501Z,27.40
2023-03-31T06:44:04.179Z,27.41
2023-03-31T06:45:04.161Z,27.37
2023-03-31T06:46:04.287Z,27.46
2023-03-31T06:47:04.175Z,27.43
2023-03-31T06:48:04.227Z,27.40
2023-03-31T06:49:04.173Z,27.44
2023-03-31T06:50:04.170Z,27.46
2023-03-31T06:51:04.187Z,27.41
2023-03-31T06:52:04.176Z,27.44
2023-03-31T06:53:04.165Z,27.40
2023-03-31T06:54:04.174Z,27.46
2023-03-31T06:55:04.164Z,27.43
2023-03-31T06:56:04.363Z,27.44
2023-03-31T06:57:04.226Z,27.46
2023-03-31T06:58:04.173Z,27.39
2023-03-31T06:59:04.169Z,27.41
2023-03-31T07:00:04.173Z,27.41
2023-03-31T07:01:04.365Z,27.41
2023-03-31T07:02:04.265Z,27.31
2023-03-31T07:03:04.251Z,27.41
2023-03-31T07:04:04.171Z,27.32
2023-03-31T07:05:04.167Z,27.29
2023-03-31T07:06:04.175Z,27.39
2023-03-31T07:07:04.177Z,27.29
2023-03-31T07:08:04.171Z,27.34
2023-03-31T07:09:04.167Z,27.34
2023-03-31T07:10:04.325Z,27.34
2023-03-31T07:11:04.814Z,27.31
2023-03-31T07:12:04.173Z,27.29
2023-03-31T07:13:05.731Z,27.22
2023-03-31T07:14:04.172Z,27.28
2023-03-31T07:15:04.163Z,27.24
2023-03-31T07:16:04.336Z,27.27
2023-03-31T07:17:04.166Z,27.24
2023-03-31T07:18:04.242Z,27.22
2023-03-31T07:19:04.170Z,27.25
2023-03-31T07:20:04.171Z,27.21
2023-03-31T07:21:07.185Z,27.24
2023-03-31T07:22:04.186Z,27.22
2023-03-31T07:23:04.173Z,27.27
2023-03-31T07:24:04.174Z,27.24
2023-03-31T07:25:04.169Z,27.24
2023-03-31T07:26:04.171Z,27.17
2023-03-31T07:27:04.164Z,27.21
2023-03-31T07:28:04.205Z,27.22
2023-03-31T07:29:04.165Z,27.19
2023-03-31T07:30:04.172Z,27.25
2023-03-31T07:31:04.359Z,27.21
2023-03-31T07:32:04.210Z,27.22
2023-03-31T07:33:04.209Z,27.14
2023-03-31T07:34:04.205Z,27.14
2023-03-31T07:35:04.163Z,27.13
2023-03-31T07:36:11.871Z,27.18
2023-03-31T07:37:04.183Z,27.18
2023-03-31T07:38:04.176Z,27.21
2023-03-31T07:39:04.168Z,27.07
2023-03-31T07:40:04.174Z,27.18
2023-03-31T07:41:09.124Z,27.06
2023-03-31T07:42:04.183Z,27.17
2023-03-31T07:43:04.175Z,27.12
2023-03-31T07:44:04.201Z,27.09
2023-03-31T07:45:04.165Z,27.10
2023-03-31T07:46:04.329Z,27.14
2023-03-31T07:47:04.165Z,27.04
2023-03-31T07:48:04.219Z,27.09
2023-03-31T07:49:04.186Z,27.09
2023-03-31T07:50:04.200Z,27.03
2023-03-31T07:51:04.504Z,27.04
2023-03-31T07:52:04.185Z,27.10
2023-03-31T07:53:04.173Z,27.04
2023-03-31T07:54:04.178Z,27.02
2023-03-31T07:55:04.175Z,26.99
2023-03-31T07:56:04.470Z,26.99
2023-03-31T07:57:04.269Z,27.09
2023-03-31T07:58:04.169Z,27.02
2023-03-31T07:59:04.209Z,27.06
2023-03-31T08:00:04.163Z,26.99
2023-03-31T08:01:04.455Z,26.97
2023-03-31T08:02:04.188Z,26.92
2023-03-31T08:03:04.207Z,26.95
2023-03-31T08:04:04.305Z,26.92
2023-03-31T08:05:04.170Z,26.91
2023-03-31T08:06:04.221Z,26.89
2023-03-31T08:07:04.177Z,26.89
2023-03-31T08:08:04.166Z,26.97
2023-03-31T08:09:04.172Z,26.92
2023-03-31T08:10:04.312Z,26.87
2023-03-31T08:11:04.373Z,26.89
2023-03-31T08:12:04.169Z,26.97
2023-03-31T08:13:04.175Z,26.95
2023-03-31T08:14:04.185Z,26.94
2023-03-31T08:15:04.171Z,26.95
2023-03-31T08:16:04.507Z,26.99
2023-03-31T08:17:04.168Z,26.94
2023-03-31T08:18:04.240Z,26.89
2023-03-31T08:19:04.168Z,26.95
2023-03-31T08:20:07.524Z,26.88
2023-03-31T08:21:04.334Z,26.91
2023-03-31T08:22:04.216Z,26.82
2023-03-31T08:23:04.166Z,26.82
2023-03-31T08:24:04.159Z,26.92
2023-03-31T08:25:04.168Z,26.88
2023-03-31T08:26:04.383Z,26.82
2023-03-31T08:27:04.475Z,26.88
2023-03-31T08:28:04.159Z,26.85
2023-03-31T08:29:04.171Z,26.81
2023-03-31T08:30:04.209Z,26.85
2023-03-31T08:31:04.171Z,26.80
2023-03-31T08:32:04.255Z,26.88
2023-03-31T08:33:04.246Z,26.85
2023-03-31T08:34:04.159Z,26.82
2023-03-31T08:35:04.166Z,26.84
2023-03-31T08:36:04.252Z,26.84
2023-03-31T08:37:05.731Z,26.84
2023-03-31T08:38:04.182Z,26.76
2023-03-31T08:39:04.163Z,26.82
2023-03-31T08:40:04.156Z,26.81
2023-03-31T08:41:04.170Z,26.80
2023-03-31T08:42:04.157Z,26.88
2023-03-31T08:43:04.163Z,26.84
2023-03-31T08:44:04.161Z,26.80
2023-03-31T08:45:04.167Z,26.81
2023-03-31T08:46:04.467Z,26.76
2023-03-31T08:47:04.162Z,26.73
2023-03-31T08:48:07.028Z,26.75
2023-03-31T08:49:04.180Z,26.73
2023-03-31T08:50:04.157Z,26.66
2023-03-31T08:51:04.438Z,26.66
2023-03-31T08:52:04.156Z,26.63
2023-03-31T08:53:04.162Z,26.58
2023-03-31T08:54:04.225Z,26.67
2023-03-31T08:55:04.158Z,26.72
2023-03-31T08:56:04.338Z,26.51
2023-03-31T08:57:04.190Z,26.52
2023-03-31T08:58:04.156Z,26.65
2023-03-31T08:59:04.180Z,26.54
2023-03-31T09:00:04.155Z,26.52
2023-03-31T09:01:04.275Z,26.52
2023-03-31T09:02:04.208Z,26.54
2023-03-31T09:03:06.550Z,26.57
2023-03-31T09:04:06.390Z,26.57
2023-03-31T09:05:04.159Z,26.52
2023-03-31T09:06:04.165Z,26.65
2023-03-31T09:07:04.158Z,26.54
2023-03-31T09:08:04.150Z,26.57
2023-03-31T09:09:04.169Z,26.58
2023-03-31T09:10:04.192Z,26.54
2023-03-31T09:11:04.156Z,26.54
2023-03-31T09:12:04.153Z,26.54
2023-03-31T09:13:04.162Z,26.55
2023-03-31T09:14:04.150Z,26.55
2023-03-31T09:15:04.158Z,26.62
2023-03-31T09:16:04.326Z,26.67
2023-03-31T09:17:04.193Z,26.63
2023-03-31T09:18:04.182Z,26.58
2023-03-31T09:19:04.160Z,26.57
2023-03-31T09:20:04.149Z,26.62
2023-03-31T09:21:04.391Z,26.54
2023-03-31T09:22:04.147Z,26.55
2023-03-31T09:23:04.151Z,26.55
2023-03-31T09:24:04.183Z,26.60
2023-03-31T09:25:04.156Z,26.66
2023-03-31T09:26:04.513Z,26.60
2023-03-31T09:27:04.185Z,26.58
2023-03-31T09:28:04.146Z,26.58
2023-03-31T09:29:04.152Z,26.67
2023-03-31T09:30:04.146Z,26.69
2023-03-31T09:31:04.171Z,26.75
2023-03-31T09:32:04.158Z,26.72
2023-03-31T09:33:04.234Z,26.72
2023-03-31T09:34:04.146Z,26.73
2023-03-31T09:35:04.151Z,26.73
2023-03-31T09:36:04.267Z,26.73
2023-03-31T09:37:04.156Z,26.73
2023-03-31T09:38:04.156Z,26.73
2023-03-31T09:39:04.156Z,26.72
2023-03-31T09:40:04.148Z,26.76
2023-03-31T09:41:04.156Z,26.69
2023-03-31T09:42:04.189Z,26.73
2023-03-31T09:43:04.150Z,26.65
2023-03-31T09:44:04.144Z,26.76
2023-03-31T09:45:04.149Z,26.67
2023-03-31T09:46:15.136Z,26.72
2023-03-31T09:47:04.206Z,26.73
2023-03-31T09:48:04.226Z,26.75
2023-03-31T09:49:04.155Z,26.75
2023-03-31T09:50:04.146Z,26.76
2023-03-31T09:51:04.148Z,26.75
2023-03-31T09:52:04.144Z,26.81
2023-03-31T09:53:04.157Z,26.75
2023-03-31T09:54:04.152Z,26.80
2023-03-31T09:55:04.150Z,26.75
2023-03-31T09:56:04.518Z,26.76
2023-03-31T09:57:04.184Z,26.81
2023-03-31T09:58:04.162Z,26.77
2023-03-31T09:59:04.168Z,26.69
2023-03-31T10:00:04.138Z,26.73
2023-03-31T10:01:04.418Z,26.80
2023-03-31T10:02:04.190Z,26.73
2023-03-31T10:03:04.211Z,26.80
2023-03-31T10:04:04.212Z,26.73
2023-03-31T10:05:04.144Z,26.76
2023-03-31T10:06:04.139Z,26.77
2023-03-31T10:07:04.166Z,26.77
2023-03-31T10:08:04.137Z,26.81
2023-03-31T10:09:04.145Z,26.73
2023-03-31T10:10:04.138Z,26.81
2023-03-31T10:11:04.288Z,26.84
2023-03-31T10:12:04.137Z,26.77
2023-03-31T10:13:04.145Z,26.81
2023-03-31T10:14:04.173Z,26.80
2023-03-31T10:15:04.153Z,26.84
2023-03-31T10:16:04.211Z,26.87
2023-03-31T10:17:04.145Z,26.92
2023-03-31T10:18:04.149Z,27.00
2023-03-31T10:19:04.146Z,26.97
2023-03-31T10:20:04.193Z,26.95
2023-03-31T10:21:04.315Z,26.94
2023-03-31T10:22:04.135Z,26.94
2023-03-31T10:23:04.748Z,27.00
2023-03-31T10:24:04.135Z,26.89
2023-03-31T10:25:04.147Z,26.95
2023-03-31T10:26:04.138Z,27.00
2023-03-31T10:27:04.141Z,26.92
2023-03-31T10:28:04.134Z,27.03
2023-03-31T10:29:04.141Z,26.99
2023-03-31T10:30:04.166Z,27.06
2023-03-31T10:31:04.332Z,27.00
2023-03-31T10:32:04.138Z,27.13
2023-03-31T10:33:15.100Z,27.13
2023-03-31T10:34:04.132Z,27.14
2023-03-31T10:35:04.137Z,27.12
2023-03-31T10:36:04.155Z,27.12
2023-03-31T10:37:04.137Z,27.12
2023-03-31T10:38:06.110Z,27.17
2023-03-31T10:39:04.136Z,27.12
2023-03-31T10:40:04.129Z,27.17
2023-03-31T10:41:04.338Z,27.24
2023-03-31T10:42:04.139Z,27.28
2023-03-31T10:43:04.134Z,27.24
2023-03-31T10:44:04.137Z,27.22
2023-03-31T10:45:04.135Z,27.27
2023-03-31T10:46:04.160Z,27.25
2023-03-31T10:47:04.208Z,27.27
2023-03-31T10:48:04.225Z,27.24
2023-03-31T10:49:04.134Z,27.22
2023-03-31T10:50:04.129Z,27.13
2023-03-31T10:51:04.326Z,27.22
2023-03-31T10:52:04.126Z,27.14
2023-03-31T10:53:04.135Z,27.12
2023-03-31T10:54:04.139Z,27.19
2023-03-31T10:55:04.136Z,27.19
2023-03-31T10:56:04.126Z,27.17
2023-03-31T10:57:04.145Z,27.13
2023-03-31T10:58:04.129Z,27.21
2023-03-31T10:59:06.328Z,27.13
2023-03-31T11:00:04.128Z,27.13
2023-03-31T11:01:04.201Z,27.12
2023-03-31T11:02:04.198Z,27.10
2023-03-31T11:03:04.232Z,27.18
2023-03-31T11:04:04.226Z,27.12
2023-03-31T11:05:04.136Z,27.13
2023-03-31T11:06:04.129Z,27.14
2023-03-31T11:07:04.137Z,27.17
2023-03-31T11:08:04.137Z,27.13
2023-03-31T11:09:04.151Z,27.03
2023-03-31T11:10:04.279Z,27.06
2023-03-31T11:11:04.288Z,27.14
2023-03-31T11:12:04.143Z,27.18
2023-03-31T11:13:04.138Z,27.10
2023-03-31T11:14:04.135Z,27.14
2023-03-31T11:15:04.138Z,27.09
2023-03-31T11:16:04.207Z,27.12
2023-03-31T11:17:04.210Z,27.10
2023-03-31T11:18:04.222Z,27.09
2023-03-31T11:19:04.140Z,27.10
2023-03-31T11:20:04.133Z,27.10
2023-03-31T11:21:04.263Z,27.07
2023-03-31T11:22:04.145Z,27.06
2023-03-31T11:23:04.139Z,27.07
2023-03-31T11:24:04.138Z,27.04
2023-03-31T11:25:04.135Z,27.13
2023-03-31T11:26:04.129Z,27.02
2023-03-31T11:27:04.145Z,27.03
2023-03-31T11:28:04.134Z,27.02
2023-03-31T11:29:04.136Z,27.04
2023-03-31T11:30:04.127Z,27.04
2023-03-31T11:31:04.495Z,26.99
2023-03-31T11:32:04.162Z,26.95
2023-03-31T11:33:04.212Z,26.92
2023-03-31T11:34:04.165Z,27.00
2023-03-31T11:35:04.136Z,26.95
2023-03-31T11:36:04.161Z,27.02
2023-03-31T11:37:04.134Z,26.95
2023-03-31T11:38:04.136Z,26.94
2023-03-31T11:39:04.134Z,27.06
2023-03-31T11:40:04.134Z,26.94
2023-03-31T11:41:04.348Z,26.94
2023-03-31T11:42:04.129Z,26.92
2023-03-31T11:43:04.135Z,26.95
2023-03-31T11:44:04.126Z,27.00
2023-03-31T11:45:04.139Z,26.92
2023-03-31T11:46:04.360Z,26.95
2023-03-31T11:47:04.135Z,26.99
2023-03-31T11:48:06.231Z,26.95
2023-03-31T11:49:04.136Z,26.84
2023-03-31T11:50:04.156Z,26.94
2023-03-31T11:51:04.141Z,26.89
2023-03-31T11:52:04.131Z,26.89
2023-03-31T11:53:04.187Z,26.89
2023-03-31T11:54:04.128Z,26.92
2023-03-31T11:55:04.147Z,26.91
2023-03-31T11:56:04.253Z,26.89
2023-03-31T11:57:04.172Z,26.88
2023-03-31T11:58:04.135Z,26.89
2023-03-31T11:59:04.143Z,26.85
2023-03-31T12:00:04.132Z,26.87
2023-03-31T12:01:04.134Z,26.88
2023-03-31T12:02:04.128Z,26.89
2023-03-31T12:03:04.239Z,26.91
2023-03-31T12:04:04.205Z,26.91
2023-03-31T12:05:04.148Z,26.92
2023-03-31T12:06:04.530Z,26.91
2023-03-31T12:07:04.131Z,26.89
2023-03-31T12:08:04.141Z,26.88
2023-03-31T12:09:04.126Z,26.91
2023-03-31T12:10:04.132Z,26.89
2023-03-31T12:11:04.129Z,26.82
2023-03-31T12:12:04.132Z,26.89
2023-03-31T12:13:04.129Z,26.91
2023-03-31T12:14:04.134Z,26.77
2023-03-31T12:15:04.125Z,26.84
2023-03-31T12:16:04.403Z,26.82
2023-03-31T12:17:04.129Z,26.82
2023-03-31T12:18:04.210Z,26.87
2023-03-31T12:19:04.124Z,26.84
2023-03-31T12:20:04.133Z,26.97
2023-03-31T12:21:04.126Z,26.92
2023-03-31T12:22:04.166Z,26.97
2023-03-31T12:23:04.141Z,26.99
2023-03-31T12:24:05.033Z,26.94
2023-03-31T12:25:04.129Z,26.99
2023-03-31T12:26:04.425Z,26.95
2023-03-31T12:27:04.132Z,26.97
2023-03-31T12:28:04.144Z,26.97
2023-03-31T12:29:04.134Z,26.92
2023-03-31T12:30:04.133Z,26.95
2023-03-31T12:31:04.168Z,27.00
2023-03-31T12:32:04.131Z,26.97
2023-03-31T12:33:04.161Z,26.95
2023-03-31T12:34:04.132Z,26.87
2023-03-31T12:35:04.137Z,26.92
2023-03-31T12:36:04.460Z,26.97
2023-03-31T12:37:04.123Z,26.88
2023-03-31T12:38:04.168Z,26.95
2023-03-31T12:39:04.126Z,26.97
2023-03-31T12:40:04.132Z,26.94
2023-03-31T12:41:04.126Z,26.92
2023-03-31T12:42:04.132Z,26.92
2023-03-31T12:43:04.122Z,26.89
2023-03-31T12:44:04.132Z,26.92
2023-03-31T12:45:04.124Z,26.92
2023-03-31T12:46:04.275Z,26.88
2023-03-31T12:47:04.244Z,26.91
2023-03-31T12:48:04.227Z,26.88
2023-03-31T12:49:04.122Z,26.84
2023-03-31T12:50:04.139Z,26.72
2023-03-31T12:51:04.302Z,26.88
2023-03-31T12:52:04.130Z,26.81